sensor_id;sensor_type;location;lat;lon;timestamp;P1;durP1;ratioP1;P2;durP2;ratioP2
26512;SDS011;14186;53.822;10.152;2023-08-20T00:02:36;14.20;;;7.75;;
26512;SDS011;14186;53.822;10.152;2023-08-20T00:07:36;21.85;;;9.35;;
26512;SDS011;14186;53.822;10.152;2023-08-20T00:12:37;15.75;;;8.20;;
26512;SDS011;14186;53.822;10.152;2023-08-20T00:17:39;23.50;;;8.85;;
26512;SDS011;14186;53.822;10.152;2023-08-20T00:22:39;23.60;;;8.95;;
26512;SDS011;14186;53.822;10.152;2023-08-20T00:27:40;21.40;;;8.85;;
26512;SDS011;14186;53.822;10.152;2023-08-20T00:32:41;19.92;;;8.93;;
26512;SDS011;14186;53.822;10.152;2023-08-20T00:37:42;21.58;;;9.57;;
26512;SDS011;14186;53.822;10.152;2023-08-20T00:42:42;23.02;;;10.18;;
26512;SDS011;14186;53.822;10.152;2023-08-20T00:47:43;20.20;;;8.80;;
26512;SDS011;14186;53.822;10.152;2023-08-20T00:52:44;17.98;;;8.35;;
26512;SDS011;14186;53.822;10.152;2023-08-20T00:57:44;25.95;;;10.43;;
26512;SDS011;14186;53.822;10.152;2023-08-20T01:02:46;26.10;;;9.80;;
26512;SDS011;14186;53.822;10.152;2023-08-20T01:07:54;22.38;;;9.57;;
26512;SDS011;14186;53.822;10.152;2023-08-20T01:12:56;24.50;;;10.20;;
26512;SDS011;14186;53.822;10.152;2023-08-20T01:17:58;21.35;;;9.32;;
26512;SDS011;14186;53.822;10.152;2023-08-20T01:28:20;21.23;;;8.70;;
26512;SDS011;14186;53.822;10.152;2023-08-20T01:33:20;19.83;;;9.10;;
26512;SDS011;14186;53.822;10.152;2023-08-20T01:38:20;13.95;;;7.40;;
26512;SDS011;14186;53.822;10.152;2023-08-20T01:43:22;15.32;;;8.00;;
26512;SDS011;14186;53.822;10.152;2023-08-20T01:48:22;15.02;;;8.85;;
26512;SDS011;14186;53.822;10.152;2023-08-20T01:53:22;21.48;;;9.77;;
26512;SDS011;14186;53.822;10.152;2023-08-20T01:58:24;23.65;;;9.25;;
26512;SDS011;14186;53.822;10.152;2023-08-20T02:03:24;21.60;;;8.73;;
26512;SDS011;14186;53.822;10.152;2023-08-20T02:08:24;25.98;;;9.55;;
26512;SDS011;14186;53.822;10.152;2023-08-20T02:13:26;16.17;;;8.48;;
26512;SDS011;14186;53.822;10.152;2023-08-20T02:18:26;17.00;;;8.50;;
26512;SDS011;14186;53.822;10.152;2023-08-20T02:23:26;19.88;;;7.93;;
26512;SDS011;14186;53.822;10.152;2023-08-20T02:28:28;17.05;;;8.02;;
26512;SDS011;14186;53.822;10.152;2023-08-20T02:33:28;18.92;;;8.38;;
26512;SDS011;14186;53.822;10.152;2023-08-20T02:38:28;17.83;;;7.43;;
26512;SDS011;14186;53.822;10.152;2023-08-20T02:43:30;19.25;;;8.82;;
26512;SDS011;14186;53.822;10.152;2023-08-20T02:48:30;14.57;;;8.18;;
26512;SDS011;14186;53.822;10.152;2023-08-20T02:53:30;19.52;;;9.65;;
26512;SDS011;14186;53.822;10.152;2023-08-20T02:58:32;28.73;;;10.85;;
26512;SDS011;14186;53.822;10.152;2023-08-20T03:03:32;20.73;;;10.55;;
26512;SDS011;14186;53.822;10.152;2023-08-20T03:08:32;29.27;;;11.23;;
26512;SDS011;14186;53.822;10.152;2023-08-20T03:13:34;31.48;;;10.77;;
26512;SDS011;14186;53.822;10.152;2023-08-20T03:18:34;43.63;;;11.27;;
26512;SDS011;14186;53.822;10.152;2023-08-20T03:23:35;25.42;;;10.10;;
26512;SDS011;14186;53.822;10.152;2023-08-20T03:28:36;42.53;;;12.25;;
26512;SDS011;14186;53.822;10.152;2023-08-20T03:33:36;47.47;;;10.57;;
26512;SDS011;14186;53.822;10.152;2023-08-20T03:38:36;26.05;;;10.15;;
26512;SDS011;14186;53.822;10.152;2023-08-20T03:43:38;16.65;;;9.02;;
26512;SDS011;14186;53.822;10.152;2023-08-20T03:48:38;31.92;;;9.48;;
26512;SDS011;14186;53.822;10.152;2023-08-20T03:53:38;37.97;;;9.85;;
26512;SDS011;14186;53.822;10.152;2023-08-20T03:58:40;18.00;;;8.48;;
26512;SDS011;14186;53.822;10.152;2023-08-20T04:03:40;24.85;;;9.65;;
26512;SDS011;14186;53.822;10.152;2023-08-20T04:08:40;19.70;;;8.70;;
26512;SDS011;14186;53.822;10.152;2023-08-20T04:13:42;22.30;;;9.77;;
26512;SDS011;14186;53.822;10.152;2023-08-20T04:18:42;18.35;;;10.23;;
26512;SDS011;14186;53.822;10.152;2023-08-20T04:23:42;30.00;;;10.35;;
26512;SDS011;14186;53.822;10.152;2023-08-20T04:28:44;34.05;;;11.55;;
26512;SDS011;14186;53.822;10.152;2023-08-20T04:33:45;32.15;;;11.20;;
26512;SDS011;14186;53.822;10.152;2023-08-20T04:38:45;59.83;;;12.60;;
26512;SDS011;14186;53.822;10.152;2023-08-20T04:43:46;32.63;;;9.85;;
26512;SDS011;14186;53.822;10.152;2023-08-20T04:48:47;48.53;;;11.60;;
26512;SDS011;14186;53.822;10.152;2023-08-20T04:53:47;34.33;;;9.63;;
26512;SDS011;14186;53.822;10.152;2023-08-20T04:58:48;26.95;;;8.57;;
26512;SDS011;14186;53.822;10.152;2023-08-20T05:03:49;31.67;;;8.65;;
26512;SDS011;14186;53.822;10.152;2023-08-20T05:08:49;17.05;;;8.55;;
26512;SDS011;14186;53.822;10.152;2023-08-20T05:13:50;37.40;;;7.90;;
26512;SDS011;14186;53.822;10.152;2023-08-20T05:18:51;43.05;;;7.55;;
26512;SDS011;14186;53.822;10.152;2023-08-20T05:23:51;34.13;;;7.00;;
26512;SDS011;14186;53.822;10.152;2023-08-20T05:28:52;22.10;;;6.72;;
26512;SDS011;14186;53.822;10.152;2023-08-20T05:33:52;37.80;;;7.00;;
26512;SDS011;14186;53.822;10.152;2023-08-20T05:38:53;13.40;;;6.03;;
26512;SDS011;14186;53.822;10.152;2023-08-20T05:43:54;26.42;;;5.53;;
26512;SDS011;14186;53.822;10.152;2023-08-20T05:48:54;10.65;;;4.35;;
26512;SDS011;14186;53.822;10.152;2023-08-20T05:53:55;9.73;;;4.38;;
26512;SDS011;14186;53.822;10.152;2023-08-20T05:58:56;7.00;;;3.65;;
26512;SDS011;14186;53.822;10.152;2023-08-20T06:03:56;8.02;;;3.40;;
26512;SDS011;14186;53.822;10.152;2023-08-20T06:08:56;5.75;;;2.85;;
26512;SDS011;14186;53.822;10.152;2023-08-20T06:13:58;17.00;;;4.47;;
26512;SDS011;14186;53.822;10.152;2023-08-20T06:18:58;12.27;;;5.00;;
26512;SDS011;14186;53.822;10.152;2023-08-20T06:23:58;14.93;;;6.20;;
26512;SDS011;14186;53.822;10.152;2023-08-20T06:29:00;14.60;;;5.30;;
26512;SDS011;14186;53.822;10.152;2023-08-20T06:34:00;16.92;;;4.63;;
26512;SDS011;14186;53.822;10.152;2023-08-20T06:39:00;8.77;;;4.57;;
26512;SDS011;14186;53.822;10.152;2023-08-20T06:44:02;9.27;;;4.57;;
26512;SDS011;14186;53.822;10.152;2023-08-20T06:49:02;7.95;;;4.70;;
26512;SDS011;14186;53.822;10.152;2023-08-20T06:54:03;9.23;;;5.13;;
26512;SDS011;14186;53.822;10.152;2023-08-20T06:59:05;7.35;;;5.20;;
26512;SDS011;14186;53.822;10.152;2023-08-20T07:04:05;7.93;;;4.80;;
26512;SDS011;14186;53.822;10.152;2023-08-20T07:09:05;10.40;;;4.30;;
26512;SDS011;14186;53.822;10.152;2023-08-20T07:14:07;8.30;;;4.22;;
26512;SDS011;14186;53.822;10.152;2023-08-20T07:19:07;7.15;;;4.35;;
26512;SDS011;14186;53.822;10.152;2023-08-20T07:24:07;10.15;;;4.53;;
26512;SDS011;14186;53.822;10.152;2023-08-20T07:29:09;7.87;;;4.93;;
26512;SDS011;14186;53.822;10.152;2023-08-20T07:34:09;10.98;;;5.93;;
26512;SDS011;14186;53.822;10.152;2023-08-20T07:39:09;12.05;;;6.05;;
26512;SDS011;14186;53.822;10.152;2023-08-20T07:44:11;9.85;;;5.30;;
26512;SDS011;14186;53.822;10.152;2023-08-20T07:49:11;8.65;;;4.80;;
26512;SDS011;14186;53.822;10.152;2023-08-20T07:54:11;7.13;;;4.10;;
26512;SDS011;14186;53.822;10.152;2023-08-20T07:59:13;10.02;;;3.78;;
26512;SDS011;14186;53.822;10.152;2023-08-20T08:04:13;7.25;;;2.75;;
26512;SDS011;14186;53.822;10.152;2023-08-20T08:09:18;7.30;;;2.42;;
26512;SDS011;14186;53.822;10.152;2023-08-20T08:14:20;9.65;;;1.85;;
26512;SDS011;14186;53.822;10.152;2023-08-20T08:19:20;9.05;;;2.60;;
26512;SDS011;14186;53.822;10.152;2023-08-20T08:24:20;9.63;;;1.67;;
26512;SDS011;14186;53.822;10.152;2023-08-20T08:29:22;8.43;;;1.48;;
26512;SDS011;14186;53.822;10.152;2023-08-20T08:34:22;8.98;;;1.90;;
26512;SDS011;14186;53.822;10.152;2023-08-20T08:39:22;6.20;;;2.10;;
26512;SDS011;14186;53.822;10.152;2023-08-20T08:44:24;6.30;;;1.52;;
26512;SDS011;14186;53.822;10.152;2023-08-20T08:49:24;9.18;;;1.85;;
26512;SDS011;14186;53.822;10.152;2023-08-20T08:54:25;5.53;;;1.90;;
26512;SDS011;14186;53.822;10.152;2023-08-20T08:59:26;7.93;;;2.75;;
26512;SDS011;14186;53.822;10.152;2023-08-20T09:04:26;7.28;;;3.00;;
26512;SDS011;14186;53.822;10.152;2023-08-20T09:09:28;4.75;;;2.42;;
26512;SDS011;14186;53.822;10.152;2023-08-20T09:14:31;5.70;;;2.30;;
26512;SDS011;14186;53.822;10.152;2023-08-20T09:19:34;10.10;;;2.50;;
26512;SDS011;14186;53.822;10.152;2023-08-20T09:24:38;8.80;;;2.80;;
26512;SDS011;14186;53.822;10.152;2023-08-20T09:29:47;5.47;;;3.13;;
26512;SDS011;14186;53.822;10.152;2023-08-20T09:34:48;6.07;;;2.22;;
26512;SDS011;14186;53.822;10.152;2023-08-20T09:39:48;5.80;;;1.75;;
26512;SDS011;14186;53.822;10.152;2023-08-20T09:44:50;3.50;;;1.98;;
26512;SDS011;14186;53.822;10.152;2023-08-20T09:49:52;5.18;;;2.13;;
26512;SDS011;14186;53.822;10.152;2023-08-20T09:54:57;4.65;;;1.75;;
26512;SDS011;14186;53.822;10.152;2023-08-20T10:00:01;4.45;;;1.27;;
26512;SDS011;14186;53.822;10.152;2023-08-20T10:05:02;4.45;;;1.77;;
26512;SDS011;14186;53.822;10.152;2023-08-20T10:10:03;4.47;;;1.57;;
26512;SDS011;14186;53.822;10.152;2023-08-20T10:15:06;5.53;;;1.55;;
26512;SDS011;14186;53.822;10.152;2023-08-20T10:20:07;6.63;;;1.73;;
26512;SDS011;14186;53.822;10.152;2023-08-20T10:25:08;7.03;;;1.60;;
26512;SDS011;14186;53.822;10.152;2023-08-20T10:30:10;3.55;;;1.30;;
26512;SDS011;14186;53.822;10.152;2023-08-20T10:35:11;5.45;;;1.63;;
26512;SDS011;14186;53.822;10.152;2023-08-20T10:40:11;5.43;;;1.50;;
26512;SDS011;14186;53.822;10.152;2023-08-20T10:45:13;8.02;;;2.03;;
26512;SDS011;14186;53.822;10.152;2023-08-20T10:50:15;5.07;;;1.38;;
26512;SDS011;14186;53.822;10.152;2023-08-20T10:55:15;6.18;;;1.42;;
26512;SDS011;14186;53.822;10.152;2023-08-20T11:00:17;7.25;;;1.98;;
26512;SDS011;14186;53.822;10.152;2023-08-20T11:05:17;2.92;;;1.05;;
26512;SDS011;14186;53.822;10.152;2023-08-20T11:10:18;3.95;;;1.42;;
26512;SDS011;14186;53.822;10.152;2023-08-20T11:15:19;4.88;;;1.30;;
26512;SDS011;14186;53.822;10.152;2023-08-20T11:20:20;6.13;;;1.20;;
26512;SDS011;14186;53.822;10.152;2023-08-20T11:25:20;5.75;;;1.13;;
26512;SDS011;14186;53.822;10.152;2023-08-20T11:30:21;2.38;;;0.95;;
26512;SDS011;14186;53.822;10.152;2023-08-20T11:35:22;5.57;;;2.03;;
26512;SDS011;14186;53.822;10.152;2023-08-20T11:40:22;6.10;;;1.40;;
26512;SDS011;14186;53.822;10.152;2023-08-20T11:45:23;3.35;;;1.45;;
26512;SDS011;14186;53.822;10.152;2023-08-20T11:50:24;4.80;;;1.20;;
26512;SDS011;14186;53.822;10.152;2023-08-20T11:55:24;3.23;;;1.17;;
26512;SDS011;14186;53.822;10.152;2023-08-20T12:00:27;3.70;;;1.05;;
26512;SDS011;14186;53.822;10.152;2023-08-20T12:05:27;6.95;;;1.20;;
26512;SDS011;14186;53.822;10.152;2023-08-20T12:10:28;3.05;;;1.10;;
26512;SDS011;14186;53.822;10.152;2023-08-20T12:15:30;5.57;;;1.38;;
26512;SDS011;14186;53.822;10.152;2023-08-20T12:20:31;5.18;;;1.25;;
26512;SDS011;14186;53.822;10.152;2023-08-20T12:25:32;10.60;;;1.52;;
26512;SDS011;14186;53.822;10.152;2023-08-20T12:30:33;5.78;;;1.10;;
26512;SDS011;14186;53.822;10.152;2023-08-20T12:35:33;3.70;;;1.15;;
26512;SDS011;14186;53.822;10.152;2023-08-20T12:40:34;4.20;;;1.00;;
26512;SDS011;14186;53.822;10.152;2023-08-20T12:45:35;5.68;;;1.02;;
26512;SDS011;14186;53.822;10.152;2023-08-20T12:50:35;2.33;;;0.77;;
26512;SDS011;14186;53.822;10.152;2023-08-20T12:55:36;5.72;;;1.00;;
26512;SDS011;14186;53.822;10.152;2023-08-20T13:00:37;5.05;;;1.33;;
26512;SDS011;14186;53.822;10.152;2023-08-20T13:05:38;5.30;;;1.00;;
26512;SDS011;14186;53.822;10.152;2023-08-20T13:10:38;5.15;;;1.38;;
26512;SDS011;14186;53.822;10.152;2023-08-20T13:15:40;4.90;;;0.82;;
26512;SDS011;14186;53.822;10.152;2023-08-20T13:20:41;3.17;;;0.95;;
26512;SDS011;14186;53.822;10.152;2023-08-20T13:25:41;1.77;;;0.60;;
26512;SDS011;14186;53.822;10.152;2023-08-20T13:30:43;2.83;;;0.68;;
26512;SDS011;14186;53.822;10.152;2023-08-20T13:35:43;3.05;;;0.80;;
26512;SDS011;14186;53.822;10.152;2023-08-20T13:40:43;2.05;;;0.70;;
26512;SDS011;14186;53.822;10.152;2023-08-20T13:45:45;3.53;;;0.90;;
26512;SDS011;14186;53.822;10.152;2023-08-20T13:50:45;3.65;;;0.70;;
26512;SDS011;14186;53.822;10.152;2023-08-20T13:55:45;3.28;;;0.70;;
26512;SDS011;14186;53.822;10.152;2023-08-20T14:00:47;2.22;;;0.68;;
26512;SDS011;14186;53.822;10.152;2023-08-20T14:05:47;2.75;;;0.73;;
26512;SDS011;14186;53.822;10.152;2023-08-20T14:10:47;4.45;;;0.70;;
26512;SDS011;14186;53.822;10.152;2023-08-20T14:15:49;4.50;;;1.52;;
26512;SDS011;14186;53.822;10.152;2023-08-20T14:20:49;2.15;;;0.80;;
26512;SDS011;14186;53.822;10.152;2023-08-20T14:25:49;3.03;;;0.77;;
26512;SDS011;14186;53.822;10.152;2023-08-20T14:30:50;2.35;;;0.60;;
26512;SDS011;14186;53.822;10.152;2023-08-20T14:35:51;1.95;;;0.60;;
26512;SDS011;14186;53.822;10.152;2023-08-20T14:40:51;4.10;;;0.85;;
26512;SDS011;14186;53.822;10.152;2023-08-20T14:45:52;2.08;;;0.65;;
26512;SDS011;14186;53.822;10.152;2023-08-20T14:50:53;3.15;;;1.25;;
26512;SDS011;14186;53.822;10.152;2023-08-20T14:55:53;4.95;;;0.80;;
26512;SDS011;14186;53.822;10.152;2023-08-20T15:00:54;4.15;;;1.80;;
26512;SDS011;14186;53.822;10.152;2023-08-20T15:05:55;2.17;;;0.50;;
26512;SDS011;14186;53.822;10.152;2023-08-20T15:10:55;1.42;;;0.80;;
26512;SDS011;14186;53.822;10.152;2023-08-20T15:15:57;5.22;;;0.70;;
26512;SDS011;14186;53.822;10.152;2023-08-20T15:20:58;3.72;;;0.88;;
26512;SDS011;14186;53.822;10.152;2023-08-20T15:25:58;4.82;;;1.10;;
26512;SDS011;14186;53.822;10.152;2023-08-20T15:31:00;2.97;;;0.70;;
26512;SDS011;14186;53.822;10.152;2023-08-20T15:36:00;3.53;;;0.98;;
26512;SDS011;14186;53.822;10.152;2023-08-20T15:41:01;4.32;;;1.25;;
26512;SDS011;14186;53.822;10.152;2023-08-20T15:46:02;6.63;;;1.00;;
26512;SDS011;14186;53.822;10.152;2023-08-20T15:51:02;6.60;;;1.67;;
26512;SDS011;14186;53.822;10.152;2023-08-20T15:56:03;5.03;;;1.00;;
26512;SDS011;14186;53.822;10.152;2023-08-20T16:01:04;6.90;;;1.07;;
26512;SDS011;14186;53.822;10.152;2023-08-20T16:06:04;3.88;;;1.05;;
26512;SDS011;14186;53.822;10.152;2023-08-20T16:11:05;4.23;;;0.93;;
26512;SDS011;14186;53.822;10.152;2023-08-20T16:16:06;7.97;;;1.05;;
26512;SDS011;14186;53.822;10.152;2023-08-20T16:21:06;6.22;;;0.90;;
26512;SDS011;14186;53.822;10.152;2023-08-20T16:26:07;5.20;;;1.00;;
26512;SDS011;14186;53.822;10.152;2023-08-20T16:31:08;5.13;;;1.17;;
26512;SDS011;14186;53.822;10.152;2023-08-20T16:36:08;5.40;;;1.15;;
26512;SDS011;14186;53.822;10.152;2023-08-20T16:41:09;3.03;;;0.90;;
26512;SDS011;14186;53.822;10.152;2023-08-20T16:46:10;2.38;;;0.73;;
26512;SDS011;14186;53.822;10.152;2023-08-20T16:51:10;3.33;;;0.93;;
26512;SDS011;14186;53.822;10.152;2023-08-20T16:56:11;5.30;;;0.98;;
26512;SDS011;14186;53.822;10.152;2023-08-20T17:01:12;8.18;;;1.40;;
26512;SDS011;14186;53.822;10.152;2023-08-20T17:06:12;3.58;;;0.80;;
26512;SDS011;14186;53.822;10.152;2023-08-20T17:11:12;5.85;;;1.25;;
26512;SDS011;14186;53.822;10.152;2023-08-20T17:16:14;6.15;;;0.93;;
26512;SDS011;14186;53.822;10.152;2023-08-20T17:21:14;3.53;;;1.00;;
26512;SDS011;14186;53.822;10.152;2023-08-20T17:26:14;4.55;;;0.90;;
26512;SDS011;14186;53.822;10.152;2023-08-20T17:31:16;3.13;;;0.93;;
26512;SDS011;14186;53.822;10.152;2023-08-20T17:36:16;3.83;;;0.80;;
26512;SDS011;14186;53.822;10.152;2023-08-20T17:41:16;6.97;;;1.17;;
26512;SDS011;14186;53.822;10.152;2023-08-20T17:46:18;5.95;;;1.10;;
26512;SDS011;14186;53.822;10.152;2023-08-20T17:51:18;6.68;;;1.13;;
26512;SDS011;14186;53.822;10.152;2023-08-20T17:56:18;5.50;;;1.00;;
26512;SDS011;14186;53.822;10.152;2023-08-20T18:01:20;6.43;;;1.55;;
26512;SDS011;14186;53.822;10.152;2023-08-20T18:06:20;6.85;;;1.05;;
26512;SDS011;14186;53.822;10.152;2023-08-20T18:11:20;8.15;;;1.20;;
26512;SDS011;14186;53.822;10.152;2023-08-20T18:16:22;9.05;;;1.90;;
26512;SDS011;14186;53.822;10.152;2023-08-20T18:21:22;4.90;;;0.80;;
26512;SDS011;14186;53.822;10.152;2023-08-20T18:26:22;7.63;;;1.42;;
26512;SDS011;14186;53.822;10.152;2023-08-20T18:31:24;4.50;;;1.08;;
26512;SDS011;14186;53.822;10.152;2023-08-20T18:36:24;6.97;;;1.20;;
26512;SDS011;14186;53.822;10.152;2023-08-20T18:41:24;3.35;;;1.08;;
26512;SDS011;14186;53.822;10.152;2023-08-20T18:46:26;5.60;;;1.10;;
26512;SDS011;14186;53.822;10.152;2023-08-20T18:51:26;3.72;;;0.90;;
26512;SDS011;14186;53.822;10.152;2023-08-20T18:56:26;7.40;;;1.77;;
26512;SDS011;14186;53.822;10.152;2023-08-20T19:01:28;5.25;;;1.10;;
26512;SDS011;14186;53.822;10.152;2023-08-20T19:06:28;4.47;;;1.20;;
26512;SDS011;14186;53.822;10.152;2023-08-20T19:11:28;7.38;;;1.42;;
26512;SDS011;14186;53.822;10.152;2023-08-20T19:16:30;3.33;;;1.10;;
26512;SDS011;14186;53.822;10.152;2023-08-20T19:21:30;4.20;;;1.00;;
26512;SDS011;14186;53.822;10.152;2023-08-20T19:26:30;4.65;;;1.50;;
26512;SDS011;14186;53.822;10.152;2023-08-20T19:31:32;6.35;;;1.23;;
26512;SDS011;14186;53.822;10.152;2023-08-20T19:36:32;5.40;;;1.58;;
26512;SDS011;14186;53.822;10.152;2023-08-20T19:41:32;8.13;;;1.50;;
26512;SDS011;14186;53.822;10.152;2023-08-20T19:46:34;4.00;;;1.33;;
26512;SDS011;14186;53.822;10.152;2023-08-20T19:51:34;5.95;;;1.38;;
26512;SDS011;14186;53.822;10.152;2023-08-20T19:56:34;5.90;;;1.40;;
26512;SDS011;14186;53.822;10.152;2023-08-20T20:01:45;7.13;;;1.15;;
26512;SDS011;14186;53.822;10.152;2023-08-20T20:06:45;8.13;;;2.30;;
26512;SDS011;14186;53.822;10.152;2023-08-20T20:11:46;7.63;;;1.70;;
26512;SDS011;14186;53.822;10.152;2023-08-20T20:16:47;6.35;;;1.58;;
26512;SDS011;14186;53.822;10.152;2023-08-20T20:21:47;7.78;;;2.10;;
26512;SDS011;14186;53.822;10.152;2023-08-20T20:26:47;4.90;;;1.70;;
26512;SDS011;14186;53.822;10.152;2023-08-20T20:31:49;10.07;;;2.80;;
26512;SDS011;14186;53.822;10.152;2023-08-20T20:36:49;3.90;;;1.77;;
26512;SDS011;14186;53.822;10.152;2023-08-20T20:41:50;9.70;;;1.60;;
26512;SDS011;14186;53.822;10.152;2023-08-20T20:46:51;8.38;;;1.60;;
26512;SDS011;14186;53.822;10.152;2023-08-20T20:51:51;7.65;;;1.48;;
26512;SDS011;14186;53.822;10.152;2023-08-20T20:56:52;7.10;;;1.60;;
26512;SDS011;14186;53.822;10.152;2023-08-20T21:01:53;6.35;;;1.52;;
26512;SDS011;14186;53.822;10.152;2023-08-20T21:06:53;3.40;;;1.20;;
26512;SDS011;14186;53.822;10.152;2023-08-20T21:11:54;7.05;;;1.60;;
26512;SDS011;14186;53.822;10.152;2023-08-20T21:16:55;5.13;;;1.48;;
26512;SDS011;14186;53.822;10.152;2023-08-20T21:21:55;4.93;;;1.25;;
26512;SDS011;14186;53.822;10.152;2023-08-20T21:26:56;4.47;;;1.63;;
26512;SDS011;14186;53.822;10.152;2023-08-20T21:31:57;4.53;;;1.70;;
26512;SDS011;14186;53.822;10.152;2023-08-20T21:36:57;4.70;;;1.50;;
26512;SDS011;14186;53.822;10.152;2023-08-20T21:41:58;4.65;;;1.73;;
26512;SDS011;14186;53.822;10.152;2023-08-20T21:46:59;8.93;;;1.85;;
26512;SDS011;14186;53.822;10.152;2023-08-20T21:52:00;3.38;;;1.83;;
26512;SDS011;14186;53.822;10.152;2023-08-20T21:57:00;3.25;;;1.73;;
26512;SDS011;14186;53.822;10.152;2023-08-20T22:02:02;8.10;;;1.70;;
26512;SDS011;14186;53.822;10.152;2023-08-20T22:07:02;5.13;;;1.73;;
26512;SDS011;14186;53.822;10.152;2023-08-20T22:12:02;7.40;;;2.30;;
26512;SDS011;14186;53.822;10.152;2023-08-20T22:17:04;6.15;;;1.60;;
26512;SDS011;14186;53.822;10.152;2023-08-20T22:22:04;5.03;;;2.10;;
26512;SDS011;14186;53.822;10.152;2023-08-20T22:27:05;9.65;;;2.10;;
26512;SDS011;14186;53.822;10.152;2023-08-20T22:32:06;6.78;;;2.10;;
26512;SDS011;14186;53.822;10.152;2023-08-20T22:37:06;6.80;;;1.80;;
26512;SDS011;14186;53.822;10.152;2023-08-20T22:42:07;7.72;;;2.38;;
26512;SDS011;14186;53.822;10.152;2023-08-20T22:47:08;5.40;;;1.70;;
26512;SDS011;14186;53.822;10.152;2023-08-20T22:52:08;7.57;;;2.00;;
26512;SDS011;14186;53.822;10.152;2023-08-20T22:57:08;6.10;;;2.40;;
26512;SDS011;14186;53.822;10.152;2023-08-20T23:02:10;9.75;;;2.90;;
26512;SDS011;14186;53.822;10.152;2023-08-20T23:07:10;8.70;;;2.83;;
26512;SDS011;14186;53.822;10.152;2023-08-20T23:12:10;10.38;;;3.95;;
26512;SDS011;14186;53.822;10.152;2023-08-20T23:17:12;8.65;;;4.00;;
26512;SDS011;14186;53.822;10.152;2023-08-20T23:22:12;5.47;;;2.80;;
26512;SDS011;14186;53.822;10.152;2023-08-20T23:27:12;12.43;;;3.92;;
26512;SDS011;14186;53.822;10.152;2023-08-20T23:32:14;7.25;;;3.15;;
26512;SDS011;14186;53.822;10.152;2023-08-20T23:37:14;10.23;;;3.55;;
26512;SDS011;14186;53.822;10.152;2023-08-20T23:42:14;10.27;;;3.47;;
26512;SDS011;14186;53.822;10.152;2023-08-20T23:47:16;8.13;;;3.35;;
26512;SDS011;14186;53.822;10.152;2023-08-20T23:52:16;10.90;;;3.30;;
26512;SDS011;14186;53.822;10.152;2023-08-20T23:57:16;11.75;;;4.00;;
